sensor_id;sensor_type;location;lat;lon;timestamp;temperature;humidity
16999;DHT22;10211;49.476;11.010;2023-03-13T00:01:48;7.60;99.90
16999;DHT22;10211;49.476;11.010;2023-03-13T00:04:17;7.50;99.90
16999;DHT22;10211;49.476;11.010;2023-03-13T00:06:44;7.50;99.90
16999;DHT22;10211;49.476;11.010;2023-03-13T00:09:13;7.50;99.90
16999;DHT22;10211;49.476;11.010;2023-03-13T00:11:40;7.50;99.90
16999;DHT22;10211;49.476;11.010;2023-03-13T00:14:07;7.50;99.90
16999;DHT22;10211;49.476;11.010;2023-03-13T00:16:34;7.50;99.90
16999;DHT22;10211;49.476;11.010;2023-03-13T00:19:03;7.50;99.90
16999;DHT22;10211;49.476;11.010;2023-03-13T00:21:31;7.50;99.90
16999;DHT22;10211;49.476;11.010;2023-03-13T00:23:59;7.50;99.90
16999;DHT22;10211;49.476;11.010;2023-03-13T00:26:26;7.50;99.90
16999;DHT22;10211;49.476;11.010;2023-03-13T00:28:53;7.60;99.90
16999;DHT22;10211;49.476;11.010;2023-03-13T00:31:22;7.60;99.90
16999;DHT22;10211;49.476;11.010;2023-03-13T00:33:50;7.60;99.90
16999;DHT22;10211;49.476;11.010;2023-03-13T00:36:19;7.60;99.90
16999;DHT22;10211;49.476;11.010;2023-03-13T00:38:48;7.60;99.90
16999;DHT22;10211;49.476;11.010;2023-03-13T00:41:16;7.50;99.90
16999;DHT22;10211;49.476;11.010;2023-03-13T00:43:44;7.50;99.90
16999;DHT22;10211;49.476;11.010;2023-03-13T00:46:12;7.60;99.90
16999;DHT22;10211;49.476;11.010;2023-03-13T00:48:39;7.60;99.90
16999;DHT22;10211;49.476;11.010;2023-03-13T00:51:07;7.50;99.90
16999;DHT22;10211;49.476;11.010;2023-03-13T00:53:34;7.60;99.90
16999;DHT22;10211;49.476;11.010;2023-03-13T00:56:04;7.60;99.90
16999;DHT22;10211;49.476;11.010;2023-03-13T00:58:33;7.60;99.90
16999;DHT22;10211;49.476;11.010;2023-03-13T01:01:06;7.50;99.90
16999;DHT22;10211;49.476;11.010;2023-03-13T01:03:34;7.50;99.90
16999;DHT22;10211;49.476;11.010;2023-03-13T01:06:03;7.50;99.90
16999;DHT22;10211;49.476;11.010;2023-03-13T01:08:30;7.50;99.90
16999;DHT22;10211;49.476;11.010;2023-03-13T01:10:58;7.50;99.90
16999;DHT22;10211;49.476;11.010;2023-03-13T01:13:29;7.50;99.90
16999;DHT22;10211;49.476;11.010;2023-03-13T01:16:00;7.50;99.90
16999;DHT22;10211;49.476;11.010;2023-03-13T01:18:27;7.50;99.90
16999;DHT22;10211;49.476;11.010;2023-03-13T01:20:54;7.50;99.90
16999;DHT22;10211;49.476;11.010;2023-03-13T01:23:21;7.50;99.90
16999;DHT22;10211;49.476;11.010;2023-03-13T01:25:48;7.50;99.90
16999;DHT22;10211;49.476;11.010;2023-03-13T01:28:15;7.50;99.90
16999;DHT22;10211;49.476;11.010;2023-03-13T01:30:43;7.40;99.90
16999;DHT22;10211;49.476;11.010;2023-03-13T01:33:10;7.40;99.90
16999;DHT22;10211;49.476;11.010;2023-03-13T01:35:36;7.40;99.90
16999;DHT22;10211;49.476;11.010;2023-03-13T01:38:03;7.30;99.90
16999;DHT22;10211;49.476;11.010;2023-03-13T01:40:30;7.30;99.90
16999;DHT22;10211;49.476;11.010;2023-03-13T01:42:58;7.20;99.90
16999;DHT22;10211;49.476;11.010;2023-03-13T01:45:53;7.20;99.90
16999;DHT22;10211;49.476;11.010;2023-03-13T01:48:25;7.20;99.90
16999;DHT22;10211;49.476;11.010;2023-03-13T01:50:56;7.10;99.90
16999;DHT22;10211;49.476;11.010;2023-03-13T01:53:26;7.10;99.90
16999;DHT22;10211;49.476;11.010;2023-03-13T01:55:54;7.10;99.90
16999;DHT22;10211;49.476;11.010;2023-03-13T01:58:23;7.20;99.90
16999;DHT22;10211;49.476;11.010;2023-03-13T02:00:50;7.20;99.90
16999;DHT22;10211;49.476;11.010;2023-03-13T02:03:20;7.20;99.90
16999;DHT22;10211;49.476;11.010;2023-03-13T02:05:49;7.20;99.90
16999;DHT22;10211;49.476;11.010;2023-03-13T02:08:18;7.30;99.90
16999;DHT22;10211;49.476;11.010;2023-03-13T02:10:50;7.30;99.90
16999;DHT22;10211;49.476;11.010;2023-03-13T02:13:17;7.40;99.90
16999;DHT22;10211;49.476;11.010;2023-03-13T02:15:46;7.40;99.90
16999;DHT22;10211;49.476;11.010;2023-03-13T02:18:13;7.40;99.90
16999;DHT22;10211;49.476;11.010;2023-03-13T02:20:41;7.40;99.90
16999;DHT22;10211;49.476;11.010;2023-03-13T02:23:13;7.40;99.90
16999;DHT22;10211;49.476;11.010;2023-03-13T02:25:43;7.40;99.90
16999;DHT22;10211;49.476;11.010;2023-03-13T02:28:14;7.40;99.90
16999;DHT22;10211;49.476;11.010;2023-03-13T02:30:43;7.40;99.90
16999;DHT22;10211;49.476;11.010;2023-03-13T02:33:11;7.40;99.90
16999;DHT22;10211;49.476;11.010;2023-03-13T02:35:39;7.40;99.90
16999;DHT22;10211;49.476;11.010;2023-03-13T02:38:08;7.50;99.90
16999;DHT22;10211;49.476;11.010;2023-03-13T02:40:37;7.40;99.90
16999;DHT22;10211;49.476;11.010;2023-03-13T02:43:10;7.50;99.90
16999;DHT22;10211;49.476;11.010;2023-03-13T02:45:37;7.50;99.90
16999;DHT22;10211;49.476;11.010;2023-03-13T02:48:04;7.50;99.90
16999;DHT22;10211;49.476;11.010;2023-03-13T02:50:31;7.50;99.90
16999;DHT22;10211;49.476;11.010;2023-03-13T02:53:01;7.50;99.90
16999;DHT22;10211;49.476;11.010;2023-03-13T02:55:33;7.60;99.90
16999;DHT22;10211;49.476;11.010;2023-03-13T02:58:00;7.60;99.90
16999;DHT22;10211;49.476;11.010;2023-03-13T03:00:28;7.60;99.90
16999;DHT22;10211;49.476;11.010;2023-03-13T03:02:55;7.60;99.90
16999;DHT22;10211;49.476;11.010;2023-03-13T03:05:22;7.60;99.90
16999;DHT22;10211;49.476;11.010;2023-03-13T03:07:49;7.60;99.90
16999;DHT22;10211;49.476;11.010;2023-03-13T03:10:17;7.50;99.90
16999;DHT22;10211;49.476;11.010;2023-03-13T03:12:44;7.50;99.90
16999;DHT22;10211;49.476;11.010;2023-03-13T03:15:11;7.50;99.90
16999;DHT22;10211;49.476;11.010;2023-03-13T03:17:39;7.50;99.90
16999;DHT22;10211;49.476;11.010;2023-03-13T03:20:07;7.50;99.90
16999;DHT22;10211;49.476;11.010;2023-03-13T03:22:36;7.50;99.90
16999;DHT22;10211;49.476;11.010;2023-03-13T03:25:06;7.50;99.90
16999;DHT22;10211;49.476;11.010;2023-03-13T03:27:33;7.50;99.90
16999;DHT22;10211;49.476;11.010;2023-03-13T03:30:00;7.50;99.90
16999;DHT22;10211;49.476;11.010;2023-03-13T03:32:27;7.50;99.90
16999;DHT22;10211;49.476;11.010;2023-03-13T03:34:55;7.50;99.90
16999;DHT22;10211;49.476;11.010;2023-03-13T03:37:22;7.50;99.90
16999;DHT22;10211;49.476;11.010;2023-03-13T03:39:49;7.50;99.90
16999;DHT22;10211;49.476;11.010;2023-03-13T03:42:15;7.50;99.90
16999;DHT22;10211;49.476;11.010;2023-03-13T03:44:56;7.50;99.90
16999;DHT22;10211;49.476;11.010;2023-03-13T03:47:23;7.50;99.90
16999;DHT22;10211;49.476;11.010;2023-03-13T03:49:50;7.50;99.90
16999;DHT22;10211;49.476;11.010;2023-03-13T03:52:18;7.50;99.90
16999;DHT22;10211;49.476;11.010;2023-03-13T03:54:44;7.60;99.90
16999;DHT22;10211;49.476;11.010;2023-03-13T03:57:11;7.60;99.90
16999;DHT22;10211;49.476;11.010;2023-03-13T03:59:38;7.60;99.90
16999;DHT22;10211;49.476;11.010;2023-03-13T04:02:05;7.60;99.90
16999;DHT22;10211;49.476;11.010;2023-03-13T04:04:32;7.60;99.90
16999;DHT22;10211;49.476;11.010;2023-03-13T04:06:58;7.60;99.90
16999;DHT22;10211;49.476;11.010;2023-03-13T04:09:26;7.70;99.90
16999;DHT22;10211;49.476;11.010;2023-03-13T04:11:53;7.70;99.90
16999;DHT22;10211;49.476;11.010;2023-03-13T04:14:20;7.80;99.90
16999;DHT22;10211;49.476;11.010;2023-03-13T04:16:47;7.80;99.90
16999;DHT22;10211;49.476;11.010;2023-03-13T04:19:13;7.90;99.90
16999;DHT22;10211;49.476;11.010;2023-03-13T04:21:40;7.90;99.90
16999;DHT22;10211;49.476;11.010;2023-03-13T04:24:07;7.90;99.90
16999;DHT22;10211;49.476;11.010;2023-03-13T04:26:35;7.90;99.90
16999;DHT22;10211;49.476;11.010;2023-03-13T04:29:02;8.00;99.90
16999;DHT22;10211;49.476;11.010;2023-03-13T04:31:30;8.00;99.90
16999;DHT22;10211;49.476;11.010;2023-03-13T04:33:57;8.00;99.90
16999;DHT22;10211;49.476;11.010;2023-03-13T04:36:24;8.00;99.90
16999;DHT22;10211;49.476;11.010;2023-03-13T04:38:51;8.00;99.90
16999;DHT22;10211;49.476;11.010;2023-03-13T04:41:18;8.00;99.90
16999;DHT22;10211;49.476;11.010;2023-03-13T04:43:46;8.00;99.90
16999;DHT22;10211;49.476;11.010;2023-03-13T04:46:13;8.00;99.90
16999;DHT22;10211;49.476;11.010;2023-03-13T04:48:39;8.00;99.90
16999;DHT22;10211;49.476;11.010;2023-03-13T04:51:06;8.00;99.90
16999;DHT22;10211;49.476;11.010;2023-03-13T04:53:33;8.00;99.90
16999;DHT22;10211;49.476;11.010;2023-03-13T04:56:00;8.00;99.90
16999;DHT22;10211;49.476;11.010;2023-03-13T04:58:26;8.00;99.90
16999;DHT22;10211;49.476;11.010;2023-03-13T05:00:54;8.00;99.90
16999;DHT22;10211;49.476;11.010;2023-03-13T05:03:21;7.90;99.90
16999;DHT22;10211;49.476;11.010;2023-03-13T05:05:48;7.90;99.90
16999;DHT22;10211;49.476;11.010;2023-03-13T05:08:15;7.90;99.90
16999;DHT22;10211;49.476;11.010;2023-03-13T05:10:41;7.90;99.90
16999;DHT22;10211;49.476;11.010;2023-03-13T05:13:08;7.90;99.90
16999;DHT22;10211;49.476;11.010;2023-03-13T05:15:35;7.90;99.90
16999;DHT22;10211;49.476;11.010;2023-03-13T05:18:03;7.80;99.90
16999;DHT22;10211;49.476;11.010;2023-03-13T05:20:30;7.80;99.90
16999;DHT22;10211;49.476;11.010;2023-03-13T05:22:56;7.80;99.90
16999;DHT22;10211;49.476;11.010;2023-03-13T05:25:23;7.70;99.90
16999;DHT22;10211;49.476;11.010;2023-03-13T05:27:50;7.70;99.90
16999;DHT22;10211;49.476;11.010;2023-03-13T05:30:17;7.70;99.90
16999;DHT22;10211;49.476;11.010;2023-03-13T05:32:44;7.70;99.90
16999;DHT22;10211;49.476;11.010;2023-03-13T05:35:12;7.60;99.90
16999;DHT22;10211;49.476;11.010;2023-03-13T05:37:39;7.60;99.90
16999;DHT22;10211;49.476;11.010;2023-03-13T05:40:07;7.70;99.90
16999;DHT22;10211;49.476;11.010;2023-03-13T05:42:34;7.70;99.90
16999;DHT22;10211;49.476;11.010;2023-03-13T05:45:01;7.80;99.90
16999;DHT22;10211;49.476;11.010;2023-03-13T05:47:34;7.90;99.90
16999;DHT22;10211;49.476;11.010;2023-03-13T05:50:02;8.00;99.90
16999;DHT22;10211;49.476;11.010;2023-03-13T05:52:30;8.00;99.90
16999;DHT22;10211;49.476;11.010;2023-03-13T05:54:57;8.00;99.90
16999;DHT22;10211;49.476;11.010;2023-03-13T05:57:23;8.00;99.90
16999;DHT22;10211;49.476;11.010;2023-03-13T05:59:50;7.90;99.90
16999;DHT22;10211;49.476;11.010;2023-03-13T06:02:17;7.90;99.90
16999;DHT22;10211;49.476;11.010;2023-03-13T06:04:45;7.80;99.90
16999;DHT22;10211;49.476;11.010;2023-03-13T06:07:11;7.80;99.90
16999;DHT22;10211;49.476;11.010;2023-03-13T06:09:40;7.70;99.90
16999;DHT22;10211;49.476;11.010;2023-03-13T06:12:07;7.70;99.90
16999;DHT22;10211;49.476;11.010;2023-03-13T06:14:34;7.70;99.90
16999;DHT22;10211;49.476;11.010;2023-03-13T06:17:02;7.70;99.90
16999;DHT22;10211;49.476;11.010;2023-03-13T06:19:29;7.80;99.90
16999;DHT22;10211;49.476;11.010;2023-03-13T06:21:56;7.80;99.90
16999;DHT22;10211;49.476;11.010;2023-03-13T06:24:22;7.80;99.90
16999;DHT22;10211;49.476;11.010;2023-03-13T06:26:50;7.90;99.90
16999;DHT22;10211;49.476;11.010;2023-03-13T06:29:17;7.90;99.90
16999;DHT22;10211;49.476;11.010;2023-03-13T06:31:44;8.00;99.90
16999;DHT22;10211;49.476;11.010;2023-03-13T06:34:11;8.10;99.90
16999;DHT22;10211;49.476;11.010;2023-03-13T06:36:37;8.20;99.90
16999;DHT22;10211;49.476;11.010;2023-03-13T06:39:05;8.30;99.90
16999;DHT22;10211;49.476;11.010;2023-03-13T06:41:32;8.30;99.90
16999;DHT22;10211;49.476;11.010;2023-03-13T06:44:00;8.40;99.90
16999;DHT22;10211;49.476;11.010;2023-03-13T06:46:27;8.40;99.90
16999;DHT22;10211;49.476;11.010;2023-03-13T06:48:54;8.40;99.90
16999;DHT22;10211;49.476;11.010;2023-03-13T06:51:21;8.50;99.90
16999;DHT22;10211;49.476;11.010;2023-03-13T06:53:48;8.50;99.90
16999;DHT22;10211;49.476;11.010;2023-03-13T06:56:17;8.50;99.90
16999;DHT22;10211;49.476;11.010;2023-03-13T06:58:46;8.50;99.90
16999;DHT22;10211;49.476;11.010;2023-03-13T07:01:15;8.50;99.90
16999;DHT22;10211;49.476;11.010;2023-03-13T07:03:43;8.50;99.90
16999;DHT22;10211;49.476;11.010;2023-03-13T07:06:10;8.60;99.90
16999;DHT22;10211;49.476;11.010;2023-03-13T07:08:37;8.60;99.90
16999;DHT22;10211;49.476;11.010;2023-03-13T07:11:06;8.70;99.90
16999;DHT22;10211;49.476;11.010;2023-03-13T07:13:33;8.80;99.90
16999;DHT22;10211;49.476;11.010;2023-03-13T07:16:00;8.90;99.90
16999;DHT22;10211;49.476;11.010;2023-03-13T07:18:30;9.00;99.90
16999;DHT22;10211;49.476;11.010;2023-03-13T07:20:59;9.10;99.90
16999;DHT22;10211;49.476;11.010;2023-03-13T07:23:27;9.20;99.90
16999;DHT22;10211;49.476;11.010;2023-03-13T07:25:56;9.30;99.90
16999;DHT22;10211;49.476;11.010;2023-03-13T07:28:23;9.50;99.90
16999;DHT22;10211;49.476;11.010;2023-03-13T07:30:50;9.60;99.90
16999;DHT22;10211;49.476;11.010;2023-03-13T07:33:18;9.70;99.90
16999;DHT22;10211;49.476;11.010;2023-03-13T07:35:49;9.80;99.90
16999;DHT22;10211;49.476;11.010;2023-03-13T07:38:17;9.90;99.90
16999;DHT22;10211;49.476;11.010;2023-03-13T07:40:48;10.00;99.90
16999;DHT22;10211;49.476;11.010;2023-03-13T07:43:15;10.10;99.90
16999;DHT22;10211;49.476;11.010;2023-03-13T07:45:53;10.20;99.90
16999;DHT22;10211;49.476;11.010;2023-03-13T07:48:20;10.30;99.90
16999;DHT22;10211;49.476;11.010;2023-03-13T07:50:49;10.50;99.90
16999;DHT22;10211;49.476;11.010;2023-03-13T07:53:15;10.60;99.90
16999;DHT22;10211;49.476;11.010;2023-03-13T07:55:56;10.60;99.90
16999;DHT22;10211;49.476;11.010;2023-03-13T07:58:24;10.80;99.90
16999;DHT22;10211;49.476;11.010;2023-03-13T08:00:51;10.90;99.90
16999;DHT22;10211;49.476;11.010;2023-03-13T08:03:18;11.10;99.90
16999;DHT22;10211;49.476;11.010;2023-03-13T08:05:45;11.20;99.90
16999;DHT22;10211;49.476;11.010;2023-03-13T08:08:13;11.30;99.90
16999;DHT22;10211;49.476;11.010;2023-03-13T08:10:40;11.30;99.90
16999;DHT22;10211;49.476;11.010;2023-03-13T08:13:07;11.40;99.90
16999;DHT22;10211;49.476;11.010;2023-03-13T08:15:34;11.40;99.90
16999;DHT22;10211;49.476;11.010;2023-03-13T08:18:00;11.50;99.90
16999;DHT22;10211;49.476;11.010;2023-03-13T08:20:27;11.50;99.90
16999;DHT22;10211;49.476;11.010;2023-03-13T08:22:55;11.60;99.90
16999;DHT22;10211;49.476;11.010;2023-03-13T08:25:23;11.60;99.90
16999;DHT22;10211;49.476;11.010;2023-03-13T08:27:50;11.70;99.90
16999;DHT22;10211;49.476;11.010;2023-03-13T08:30:17;11.90;99.90
16999;DHT22;10211;49.476;11.010;2023-03-13T08:32:44;12.00;99.90
16999;DHT22;10211;49.476;11.010;2023-03-13T08:35:11;12.00;99.90
16999;DHT22;10211;49.476;11.010;2023-03-13T08:37:37;12.00;99.90
16999;DHT22;10211;49.476;11.010;2023-03-13T08:40:05;12.00;99.90
16999;DHT22;10211;49.476;11.010;2023-03-13T08:42:36;12.10;99.90
16999;DHT22;10211;49.476;11.010;2023-03-13T08:45:05;12.10;99.90
16999;DHT22;10211;49.476;11.010;2023-03-13T08:47:32;12.20;99.90
16999;DHT22;10211;49.476;11.010;2023-03-13T08:49:59;12.30;99.90
16999;DHT22;10211;49.476;11.010;2023-03-13T08:52:25;12.40;99.90
16999;DHT22;10211;49.476;11.010;2023-03-13T08:54:52;12.40;99.90
16999;DHT22;10211;49.476;11.010;2023-03-13T08:57:19;12.50;99.90
16999;DHT22;10211;49.476;11.010;2023-03-13T08:59:47;12.60;99.90
16999;DHT22;10211;49.476;11.010;2023-03-13T09:02:16;12.80;99.90
16999;DHT22;10211;49.476;11.010;2023-03-13T09:04:45;13.00;99.90
16999;DHT22;10211;49.476;11.010;2023-03-13T09:07:12;13.10;99.90
16999;DHT22;10211;49.476;11.010;2023-03-13T09:09:39;13.30;99.90
16999;DHT22;10211;49.476;11.010;2023-03-13T09:12:07;13.50;99.90
16999;DHT22;10211;49.476;11.010;2023-03-13T09:14:33;13.60;99.90
16999;DHT22;10211;49.476;11.010;2023-03-13T09:17:02;14.00;99.90
16999;DHT22;10211;49.476;11.010;2023-03-13T09:19:31;14.50;99.90
16999;DHT22;10211;49.476;11.010;2023-03-13T09:21:58;14.90;99.90
16999;DHT22;10211;49.476;11.010;2023-03-13T09:24:24;15.20;99.90
16999;DHT22;10211;49.476;11.010;2023-03-13T09:26:51;15.10;99.90
16999;DHT22;10211;49.476;11.010;2023-03-13T09:29:18;14.90;99.90
16999;DHT22;10211;49.476;11.010;2023-03-13T09:31:45;14.70;99.90
16999;DHT22;10211;49.476;11.010;2023-03-13T09:34:13;14.60;99.90
16999;DHT22;10211;49.476;11.010;2023-03-13T09:36:39;14.60;99.90
16999;DHT22;10211;49.476;11.010;2023-03-13T09:39:06;14.70;99.90
16999;DHT22;10211;49.476;11.010;2023-03-13T09:41:38;14.80;99.90
16999;DHT22;10211;49.476;11.010;2023-03-13T09:44:11;15.00;99.90
16999;DHT22;10211;49.476;11.010;2023-03-13T09:46:47;15.30;99.90
16999;DHT22;10211;49.476;11.010;2023-03-13T09:49:27;15.60;99.90
16999;DHT22;10211;49.476;11.010;2023-03-13T09:52:01;16.10;99.90
16999;DHT22;10211;49.476;11.010;2023-03-13T09:54:33;16.70;99.90
16999;DHT22;10211;49.476;11.010;2023-03-13T09:57:06;17.30;99.90
16999;DHT22;10211;49.476;11.010;2023-03-13T09:59:44;17.90;99.90
16999;DHT22;10211;49.476;11.010;2023-03-13T10:02:20;18.10;99.90
16999;DHT22;10211;49.476;11.010;2023-03-13T10:04:54;17.80;99.90
16999;DHT22;10211;49.476;11.010;2023-03-13T10:07:22;17.00;99.90
16999;DHT22;10211;49.476;11.010;2023-03-13T10:09:49;16.30;99.90
16999;DHT22;10211;49.476;11.010;2023-03-13T10:12:19;15.90;99.90
16999;DHT22;10211;49.476;11.010;2023-03-13T10:14:53;15.60;99.90
16999;DHT22;10211;49.476;11.010;2023-03-13T10:17:30;15.50;99.90
16999;DHT22;10211;49.476;11.010;2023-03-13T10:20:00;15.30;99.90
16999;DHT22;10211;49.476;11.010;2023-03-13T10:22:32;15.10;99.90
16999;DHT22;10211;49.476;11.010;2023-03-13T10:25:02;14.90;99.90
16999;DHT22;10211;49.476;11.010;2023-03-13T10:27:29;14.90;99.90
16999;DHT22;10211;49.476;11.010;2023-03-13T10:29:56;14.80;99.90
16999;DHT22;10211;49.476;11.010;2023-03-13T10:32:23;14.80;99.90
16999;DHT22;10211;49.476;11.010;2023-03-13T10:34:54;14.70;99.90
16999;DHT22;10211;49.476;11.010;2023-03-13T10:37:25;14.50;99.90
16999;DHT22;10211;49.476;11.010;2023-03-13T10:39:53;14.40;99.90
16999;DHT22;10211;49.476;11.010;2023-03-13T10:42:22;14.40;99.90
16999;DHT22;10211;49.476;11.010;2023-03-13T10:44:55;14.40;99.90
16999;DHT22;10211;49.476;11.010;2023-03-13T10:47:23;14.40;99.90
16999;DHT22;10211;49.476;11.010;2023-03-13T10:49:51;14.50;99.90
16999;DHT22;10211;49.476;11.010;2023-03-13T10:52:32;14.50;99.90
16999;DHT22;10211;49.476;11.010;2023-03-13T10:55:00;14.60;99.90
16999;DHT22;10211;49.476;11.010;2023-03-13T10:57:29;14.60;99.90
16999;DHT22;10211;49.476;11.010;2023-03-13T10:59:56;14.50;99.90
16999;DHT22;10211;49.476;11.010;2023-03-13T11:02:26;14.40;99.90
16999;DHT22;10211;49.476;11.010;2023-03-13T11:04:54;14.40;99.90
16999;DHT22;10211;49.476;11.010;2023-03-13T11:07:26;14.40;99.90
16999;DHT22;10211;49.476;11.010;2023-03-13T11:10:00;14.40;99.90
16999;DHT22;10211;49.476;11.010;2023-03-13T11:12:28;14.50;99.90
16999;DHT22;10211;49.476;11.010;2023-03-13T11:14:59;14.60;99.90
16999;DHT22;10211;49.476;11.010;2023-03-13T11:17:32;14.80;99.90
16999;DHT22;10211;49.476;11.010;2023-03-13T11:20:14;15.20;99.90
16999;DHT22;10211;49.476;11.010;2023-03-13T11:22:49;15.70;99.90
16999;DHT22;10211;49.476;11.010;2023-03-13T11:25:23;16.00;99.90
16999;DHT22;10211;49.476;11.010;2023-03-13T11:28:01;16.10;99.90
16999;DHT22;10211;49.476;11.010;2023-03-13T11:30:44;16.20;99.90
16999;DHT22;10211;49.476;11.010;2023-03-13T11:33:23;17.00;99.90
16999;DHT22;10211;49.476;11.010;2023-03-13T11:35:58;18.50;99.90
16999;DHT22;10211;49.476;11.010;2023-03-13T11:38:28;18.60;99.90
16999;DHT22;10211;49.476;11.010;2023-03-13T11:41:04;18.20;99.90
16999;DHT22;10211;49.476;11.010;2023-03-13T11:43:45;17.60;99.90
16999;DHT22;10211;49.476;11.010;2023-03-13T11:46:31;17.20;99.90
16999;DHT22;10211;49.476;11.010;2023-03-13T11:49:21;16.70;99.90
16999;DHT22;10211;49.476;11.010;2023-03-13T11:51:59;16.20;99.90
16999;DHT22;10211;49.476;11.010;2023-03-13T11:57:26;15.70;99.90
16999;DHT22;10211;49.476;11.010;2023-03-13T12:00:19;15.60;99.90
16999;DHT22;10211;49.476;11.010;2023-03-13T12:02:50;15.50;99.90
16999;DHT22;10211;49.476;11.010;2023-03-13T12:05:19;15.60;99.90
16999;DHT22;10211;49.476;11.010;2023-03-13T12:07:50;15.60;99.90
16999;DHT22;10211;49.476;11.010;2023-03-13T12:10:20;15.70;99.90
16999;DHT22;10211;49.476;11.010;2023-03-13T12:12:57;15.60;99.90
16999;DHT22;10211;49.476;11.010;2023-03-13T12:15:28;15.70;99.90
16999;DHT22;10211;49.476;11.010;2023-03-13T12:17:59;15.90;99.90
16999;DHT22;10211;49.476;11.010;2023-03-13T12:20:28;16.00;99.90
16999;DHT22;10211;49.476;11.010;2023-03-13T12:23:12;16.30;99.90
16999;DHT22;10211;49.476;11.010;2023-03-13T12:25:46;16.60;99.90
16999;DHT22;10211;49.476;11.010;2023-03-13T12:28:21;16.70;99.90
16999;DHT22;10211;49.476;11.010;2023-03-13T12:30:53;17.00;99.90
16999;DHT22;10211;49.476;11.010;2023-03-13T12:33:24;17.10;99.90
16999;DHT22;10211;49.476;11.010;2023-03-13T12:35:58;17.80;99.90
16999;DHT22;10211;49.476;11.010;2023-03-13T12:38:30;19.10;99.90
16999;DHT22;10211;49.476;11.010;2023-03-13T12:41:09;20.80;98.40
16999;DHT22;10211;49.476;11.010;2023-03-13T12:43:39;22.60;93.00
16999;DHT22;10211;49.476;11.010;2023-03-13T12:46:24;23.80;88.50
16999;DHT22;10211;49.476;11.010;2023-03-13T12:49:16;24.40;82.50
16999;DHT22;10211;49.476;11.010;2023-03-13T12:51:57;25.60;79.80
16999;DHT22;10211;49.476;11.010;2023-03-13T12:54:39;26.30;72.30
16999;DHT22;10211;49.476;11.010;2023-03-13T12:57:18;26.50;71.00
16999;DHT22;10211;49.476;11.010;2023-03-13T12:59:52;26.90;69.80
16999;DHT22;10211;49.476;11.010;2023-03-13T13:02:22;27.00;67.60
16999;DHT22;10211;49.476;11.010;2023-03-13T13:04:51;26.40;67.60
16999;DHT22;10211;49.476;11.010;2023-03-13T13:07:22;25.80;68.30
16999;DHT22;10211;49.476;11.010;2023-03-13T13:10:12;24.40;70.30
16999;DHT22;10211;49.476;11.010;2023-03-13T13:12:42;23.80;73.40
16999;DHT22;10211;49.476;11.010;2023-03-13T13:15:23;23.90;72.20
16999;DHT22;10211;49.476;11.010;2023-03-13T13:17:56;22.90;74.10
16999;DHT22;10211;49.476;11.010;2023-03-13T13:23:33;22.00;76.90
16999;DHT22;10211;49.476;11.010;2023-03-13T13:32:39;22.90;75.20
16999;DHT22;10211;49.476;11.010;2023-03-13T13:35:22;22.30;75.80
16999;DHT22;10211;49.476;11.010;2023-03-13T13:37:49;22.30;77.10
16999;DHT22;10211;49.476;11.010;2023-03-13T13:40:22;22.80;76.80
16999;DHT22;10211;49.476;11.010;2023-03-13T13:42:53;22.90;75.10
16999;DHT22;10211;49.476;11.010;2023-03-13T13:45:23;22.80;75.40
16999;DHT22;10211;49.476;11.010;2023-03-13T13:48:13;22.80;75.40
16999;DHT22;10211;49.476;11.010;2023-03-13T13:51:18;22.70;75.30
16999;DHT22;10211;49.476;11.010;2023-03-13T13:53:48;22.70;75.60
16999;DHT22;10211;49.476;11.010;2023-03-13T13:56:36;22.60;75.10
16999;DHT22;10211;49.476;11.010;2023-03-13T13:59:23;22.20;75.50
16999;DHT22;10211;49.476;11.010;2023-03-13T14:02:15;21.80;76.90
16999;DHT22;10211;49.476;11.010;2023-03-13T14:04:48;21.40;78.10
16999;DHT22;10211;49.476;11.010;2023-03-13T14:07:17;21.10;78.70
16999;DHT22;10211;49.476;11.010;2023-03-13T14:09:51;20.90;79.60
16999;DHT22;10211;49.476;11.010;2023-03-13T14:12:26;20.40;80.00
16999;DHT22;10211;49.476;11.010;2023-03-13T14:15:13;20.10;81.20
16999;DHT22;10211;49.476;11.010;2023-03-13T14:17:42;19.80;82.70
16999;DHT22;10211;49.476;11.010;2023-03-13T14:20:24;19.80;83.20
16999;DHT22;10211;49.476;11.010;2023-03-13T14:22:52;19.90;83.00
16999;DHT22;10211;49.476;11.010;2023-03-13T14:25:20;19.80;83.70
16999;DHT22;10211;49.476;11.010;2023-03-13T14:27:48;19.80;84.00
16999;DHT22;10211;49.476;11.010;2023-03-13T14:30:17;19.70;84.30
16999;DHT22;10211;49.476;11.010;2023-03-13T14:32:45;19.60;84.70
16999;DHT22;10211;49.476;11.010;2023-03-13T14:35:15;19.60;85.40
16999;DHT22;10211;49.476;11.010;2023-03-13T14:37:45;19.50;85.30
16999;DHT22;10211;49.476;11.010;2023-03-13T14:40:20;19.50;85.60
16999;DHT22;10211;49.476;11.010;2023-03-13T14:42:51;19.50;85.80
16999;DHT22;10211;49.476;11.010;2023-03-13T14:45:23;19.40;86.00
16999;DHT22;10211;49.476;11.010;2023-03-13T14:47:51;19.40;86.60
16999;DHT22;10211;49.476;11.010;2023-03-13T14:50:20;19.40;86.80
16999;DHT22;10211;49.476;11.010;2023-03-13T14:52:51;19.60;86.40
16999;DHT22;10211;49.476;11.010;2023-03-13T14:55:29;19.80;86.30
16999;DHT22;10211;49.476;11.010;2023-03-13T14:57:59;19.90;85.80
16999;DHT22;10211;49.476;11.010;2023-03-13T15:00:36;20.10;85.30
16999;DHT22;10211;49.476;11.010;2023-03-13T15:03:21;20.10;85.30
16999;DHT22;10211;49.476;11.010;2023-03-13T15:06:04;20.10;84.20
16999;DHT22;10211;49.476;11.010;2023-03-13T15:08:34;20.00;85.10
16999;DHT22;10211;49.476;11.010;2023-03-13T15:11:01;19.70;85.30
16999;DHT22;10211;49.476;11.010;2023-03-13T15:13:34;19.60;85.70
16999;DHT22;10211;49.476;11.010;2023-03-13T15:16:02;19.40;85.80
16999;DHT22;10211;49.476;11.010;2023-03-13T15:18:31;19.40;86.30
16999;DHT22;10211;49.476;11.010;2023-03-13T15:21:15;19.40;86.40
16999;DHT22;10211;49.476;11.010;2023-03-13T15:23:48;19.40;86.30
16999;DHT22;10211;49.476;11.010;2023-03-13T15:26:15;19.40;86.10
16999;DHT22;10211;49.476;11.010;2023-03-13T15:28:42;19.40;86.60
16999;DHT22;10211;49.476;11.010;2023-03-13T15:31:09;19.30;86.80
16999;DHT22;10211;49.476;11.010;2023-03-13T15:33:38;19.20;87.00
16999;DHT22;10211;49.476;11.010;2023-03-13T15:36:05;19.20;87.30
16999;DHT22;10211;49.476;11.010;2023-03-13T15:38:32;19.10;87.40
16999;DHT22;10211;49.476;11.010;2023-03-13T15:41:00;19.10;87.90
16999;DHT22;10211;49.476;11.010;2023-03-13T15:43:27;19.10;88.10
16999;DHT22;10211;49.476;11.010;2023-03-13T15:45:53;19.20;87.70
16999;DHT22;10211;49.476;11.010;2023-03-13T15:48:22;19.20;87.60
16999;DHT22;10211;49.476;11.010;2023-03-13T15:50:49;19.20;87.90
16999;DHT22;10211;49.476;11.010;2023-03-13T15:53:17;19.30;87.80